createdAt,value
2022-12-31T00:00:52.693Z,42.23
2022-12-31T00:03:21.043Z,42.73
2022-12-31T00:05:50.752Z,40.70
2022-12-31T00:08:19.339Z,43.90
2022-12-31T00:10:47.713Z,35.57
2022-12-31T00:13:16.844Z,40.47
2022-12-31T00:15:45.578Z,39.63
2022-12-31T00:18:13.997Z,47.90
2022-12-31T00:20:42.904Z,44.93
2022-12-31T00:23:12.875Z,46.27
2022-12-31T00:25:41.187Z,46.33
2022-12-31T00:28:09.539Z,47.90
2022-12-31T00:30:38.263Z,45.40
2022-12-31T00:33:06.551Z,43.07
2022-12-31T00:35:36.527Z,51.80
2022-12-31T00:38:04.956Z,49.93
2022-12-31T00:40:34.565Z,53.30
2022-12-31T00:43:02.944Z,53.60
2022-12-31T00:45:31.428Z,45.90
2022-12-31T00:47:59.820Z,49.20
2022-12-31T00:50:28.167Z,56.57
2022-12-31T00:52:56.481Z,52.87
2022-12-31T00:55:24.830Z,58.47
2022-12-31T00:57:54.382Z,63.20
2022-12-31T01:00:22.986Z,59.97
2022-12-31T01:02:51.463Z,57.73
2022-12-31T01:05:19.858Z,62.80
2022-12-31T01:07:48.281Z,61.23
2022-12-31T01:10:37.319Z,60.27
2022-12-31T01:13:07.021Z,68.80
2022-12-31T01:15:35.941Z,60.97
2022-12-31T01:18:05.006Z,63.43
2022-12-31T01:20:37.561Z,57.40
2022-12-31T01:23:06.468Z,65.17
2022-12-31T01:25:37.346Z,68.83
2022-12-31T01:28:07.811Z,67.80
2022-12-31T01:30:40.099Z,64.63
2022-12-31T01:33:08.529Z,58.87
2022-12-31T01:35:37.579Z,63.73
2022-12-31T01:38:05.900Z,70.10
2022-12-31T01:40:38.305Z,68.80
2022-12-31T01:43:16.790Z,79.20
2022-12-31T01:45:46.863Z,60.63
2022-12-31T01:48:20.736Z,65.07
2022-12-31T01:50:50.955Z,59.93
2022-12-31T01:53:20.035Z,62.33
2022-12-31T01:55:51.733Z,60.47
2022-12-31T01:58:24.340Z,69.93
2022-12-31T02:00:53.791Z,63.10
2022-12-31T02:03:22.678Z,65.73
2022-12-31T02:05:55.727Z,67.67
2022-12-31T02:08:24.119Z,62.60
2022-12-31T02:10:52.479Z,60.40
2022-12-31T02:13:22.328Z,63.03
2022-12-31T02:15:57.460Z,60.77
2022-12-31T02:18:32.046Z,89.80
2022-12-31T02:21:29.247Z,75.63
2022-12-31T02:24:33.973Z,70.50
2022-12-31T02:27:08.081Z,60.70
2022-12-31T02:30:07.767Z,72.73
2022-12-31T02:32:44.755Z,73.37
2022-12-31T02:35:17.086Z,59.57
2022-12-31T02:37:49.524Z,65.97
2022-12-31T02:40:22.290Z,68.43
2022-12-31T02:42:55.356Z,79.20
2022-12-31T02:45:31.883Z,68.17
2022-12-31T02:48:15.700Z,69.67
2022-12-31T02:50:56.532Z,59.67
2022-12-31T02:53:39.499Z,62.30
2022-12-31T02:56:18.008Z,60.80
2022-12-31T02:59:11.428Z,58.70
2022-12-31T03:02:02.604Z,52.47
2022-12-31T03:04:33.691Z,55.93
2022-12-31T03:07:04.193Z,55.20
2022-12-31T03:09:33.116Z,51.70
2022-12-31T03:12:19.324Z,51.93
2022-12-31T03:14:47.874Z,53.27
2022-12-31T03:17:17.573Z,50.93
2022-12-31T03:20:03.785Z,43.40
2022-12-31T03:22:32.673Z,50.63
2022-12-31T03:25:20.436Z,51.50
2022-12-31T03:27:49.596Z,46.13
2022-12-31T03:30:19.925Z,45.83
2022-12-31T03:32:50.559Z,47.87
2022-12-31T03:35:21.463Z,38.83
2022-12-31T03:37:50.830Z,37.93
2022-12-31T03:40:24.650Z,40.50
2022-12-31T03:42:53.229Z,39.17
2022-12-31T03:45:21.920Z,38.87
2022-12-31T03:47:51.943Z,41.17
2022-12-31T03:50:20.817Z,37.37
2022-12-31T03:52:49.307Z,38.50
2022-12-31T03:55:17.746Z,36.23
2022-12-31T03:57:46.080Z,37.90
2022-12-31T04:00:18.753Z,38.83
2022-12-31T04:02:47.871Z,35.50
2022-12-31T04:05:19.291Z,37.90
2022-12-31T04:07:48.129Z,37.17
2022-12-31T04:10:18.497Z,35.20
2022-12-31T04:12:46.958Z,31.37
2022-12-31T04:15:19.209Z,30.93
2022-12-31T04:17:48.425Z,32.27
2022-12-31T04:20:18.488Z,28.97
2022-12-31T04:22:46.914Z,31.20
2022-12-31T04:25:15.486Z,24.73
2022-12-31T04:27:45.612Z,24.90
2022-12-31T04:30:14.754Z,26.43
2022-12-31T04:32:43.514Z,32.83
2022-12-31T04:35:13.631Z,31.93
2022-12-31T04:37:43.324Z,33.10
2022-12-31T04:40:12.110Z,34.77
2022-12-31T04:42:40.676Z,37.50
2022-12-31T04:45:09.748Z,35.50
2022-12-31T04:47:38.113Z,37.40
2022-12-31T04:50:07.362Z,34.07
2022-12-31T04:52:42.335Z,33.67
2022-12-31T04:55:12.780Z,34.27
2022-12-31T04:57:42.530Z,32.40
2022-12-31T05:00:11.805Z,35.53
2022-12-31T05:02:40.449Z,36.27
2022-12-31T05:05:09.529Z,38.23
2022-12-31T05:07:37.866Z,34.73
2022-12-31T05:10:07.217Z,35.23
2022-12-31T05:12:36.955Z,30.13
2022-12-31T05:15:06.127Z,33.07
2022-12-31T05:17:34.490Z,32.73
2022-12-31T05:20:02.871Z,38.13
2022-12-31T05:22:31.284Z,31.93
2022-12-31T05:25:00.759Z,34.70
2022-12-31T05:27:31.716Z,31.07
2022-12-31T05:30:01.697Z,36.70
2022-12-31T05:32:30.119Z,30.40
2022-12-31T05:34:59.828Z,32.00
2022-12-31T05:37:29.953Z,32.87
2022-12-31T05:39:58.668Z,32.17
2022-12-31T05:42:27.472Z,36.27
2022-12-31T05:44:56.035Z,33.30
2022-12-31T05:47:25.891Z,36.10
2022-12-31T05:49:54.441Z,34.47
2022-12-31T05:52:23.172Z,31.33
2022-12-31T05:54:54.340Z,33.73
2022-12-31T05:57:22.756Z,30.53
2022-12-31T05:59:53.479Z,33.37
2022-12-31T06:02:22.901Z,33.93
2022-12-31T06:04:52.623Z,29.03
2022-12-31T06:07:21.155Z,31.73
2022-12-31T06:09:52.360Z,36.43
2022-12-31T06:12:20.708Z,32.87
2022-12-31T06:14:49.155Z,31.57
2022-12-31T06:17:17.723Z,31.03
2022-12-31T06:19:46.206Z,30.03
2022-12-31T06:22:16.009Z,32.40
2022-12-31T06:24:44.340Z,31.83
2022-12-31T06:27:12.930Z,33.73
2022-12-31T06:29:41.434Z,34.47
2022-12-31T06:32:09.783Z,30.40
2022-12-31T06:34:38.243Z,28.87
2022-12-31T06:37:06.670Z,31.77
2022-12-31T06:39:36.220Z,30.37
2022-12-31T06:42:04.507Z,33.67
2022-12-31T06:44:32.836Z,34.70
2022-12-31T06:47:01.218Z,40.23
2022-12-31T06:49:29.537Z,37.07
2022-12-31T06:51:57.820Z,38.13
2022-12-31T06:54:26.447Z,35.53
2022-12-31T06:56:56.531Z,38.37
2022-12-31T06:59:28.040Z,37.67
2022-12-31T07:02:32.115Z,44.50
2022-12-31T07:05:12.757Z,40.30
2022-12-31T07:07:51.224Z,46.17
2022-12-31T07:10:30.277Z,38.13
2022-12-31T07:13:15.257Z,42.60
2022-12-31T07:15:54.915Z,37.17
2022-12-31T07:18:31.797Z,42.53
2022-12-31T07:21:01.520Z,39.30
2022-12-31T07:23:30.413Z,38.97
2022-12-31T07:26:16.613Z,37.47
2022-12-31T07:28:54.892Z,44.03
2022-12-31T07:31:34.579Z,38.50
2022-12-31T07:34:08.526Z,41.47
2022-12-31T07:36:55.540Z,43.90
2022-12-31T07:39:33.095Z,42.63
2022-12-31T07:42:06.228Z,42.77
2022-12-31T07:44:43.998Z,39.40
2022-12-31T07:47:21.630Z,35.87
2022-12-31T07:49:50.537Z,40.30
2022-12-31T07:52:19.684Z,38.17
2022-12-31T07:54:48.135Z,38.73
2022-12-31T07:57:18.469Z,40.27
2022-12-31T08:00:04.400Z,39.60
2022-12-31T08:03:03.682Z,33.63
2022-12-31T08:05:40.481Z,34.93
2022-12-31T08:08:23.488Z,33.27
2022-12-31T08:11:01.320Z,37.77
2022-12-31T08:13:29.844Z,35.33
2022-12-31T08:16:00.578Z,34.90
2022-12-31T08:18:29.349Z,38.20
2022-12-31T08:21:09.723Z,38.20
2022-12-31T08:23:46.387Z,36.67
2022-12-31T08:26:25.311Z,40.80
2022-12-31T08:29:18.902Z,36.23
2022-12-31T08:31:57.072Z,37.20
2022-12-31T08:34:35.118Z,34.23
2022-12-31T08:37:09.900Z,38.03
2022-12-31T08:39:56.433Z,37.83
2022-12-31T08:42:40.498Z,36.70
2022-12-31T08:45:17.020Z,41.63
2022-12-31T08:48:00.288Z,37.83
2022-12-31T08:50:29.739Z,38.43
2022-12-31T08:52:58.433Z,39.33
2022-12-31T08:55:27.284Z,39.67
2022-12-31T08:58:09.468Z,36.87
2022-12-31T09:00:39.319Z,40.57
2022-12-31T09:03:25.645Z,40.73
2022-12-31T09:06:07.382Z,38.53
2022-12-31T09:08:47.032Z,37.57
2022-12-31T09:11:23.086Z,39.40
2022-12-31T09:14:14.118Z,34.27
2022-12-31T09:16:53.287Z,37.97
2022-12-31T09:19:23.023Z,38.23
2022-12-31T09:21:51.922Z,43.10
2022-12-31T09:24:20.700Z,44.07
2022-12-31T09:27:00.370Z,40.27
2022-12-31T09:29:41.600Z,44.50
2022-12-31T09:32:20.261Z,42.77
2022-12-31T09:34:57.335Z,43.30
2022-12-31T09:37:39.650Z,41.03
2022-12-31T09:40:47.290Z,40.97
2022-12-31T09:43:36.377Z,42.00
2022-12-31T09:46:34.858Z,47.80
2022-12-31T09:49:39.438Z,43.97
2022-12-31T09:52:17.941Z,46.57
2022-12-31T09:54:54.516Z,41.53
2022-12-31T09:57:35.461Z,41.00
2022-12-31T10:00:11.133Z,50.30
2022-12-31T10:03:00.145Z,53.13
2022-12-31T10:05:49.144Z,46.53
2022-12-31T10:08:33.142Z,41.40
2022-12-31T10:11:07.187Z,41.90
2022-12-31T10:13:52.040Z,42.40
2022-12-31T10:16:53.969Z,49.03
2022-12-31T10:19:53.072Z,61.80
2022-12-31T10:23:02.400Z,48.87
2022-12-31T10:25:56.100Z,55.57
2022-12-31T10:28:32.088Z,64.97
2022-12-31T10:31:14.506Z,49.67
2022-12-31T10:33:46.498Z,47.37
2022-12-31T10:36:22.047Z,42.47
2022-12-31T10:39:12.433Z,45.80
2022-12-31T10:42:17.982Z,44.53
2022-12-31T10:45:25.116Z,36.63
2022-12-31T10:48:40.983Z,44.43
2022-12-31T10:51:50.745Z,41.10
2022-12-31T10:54:41.590Z,38.97
2022-12-31T10:57:41.890Z,36.27
2022-12-31T11:00:19.373Z,34.30
2022-12-31T11:03:29.695Z,55.77
2022-12-31T11:06:37.821Z,37.57
2022-12-31T11:09:41.914Z,34.00
2022-12-31T11:12:25.501Z,32.83
2022-12-31T11:15:14.527Z,30.40
2022-12-31T11:17:54.924Z,29.43
2022-12-31T11:20:43.985Z,27.97
2022-12-31T11:23:24.144Z,26.63
2022-12-31T11:26:04.309Z,29.10
2022-12-31T11:29:04.070Z,31.80
2022-12-31T11:31:43.259Z,27.73
2022-12-31T11:34:33.079Z,25.87
2022-12-31T11:37:17.911Z,28.43
2022-12-31T11:39:56.294Z,29.07
2022-12-31T11:42:34.654Z,29.33
2022-12-31T11:45:14.120Z,29.17
2022-12-31T11:51:03.307Z,30.60
2022-12-31T11:54:01.695Z,32.47
2022-12-31T11:56:35.804Z,30.17
2022-12-31T11:59:15.726Z,30.30
2022-12-31T12:01:56.202Z,27.53
2022-12-31T12:04:26.341Z,29.67
2022-12-31T12:06:54.965Z,28.13
2022-12-31T12:09:29.045Z,28.03
2022-12-31T12:12:01.968Z,27.50
2022-12-31T12:14:35.330Z,25.23
2022-12-31T12:17:05.831Z,25.83
2022-12-31T12:19:37.359Z,30.43
2022-12-31T12:22:12.963Z,28.03
2022-12-31T12:24:41.580Z,30.13
2022-12-31T12:27:23.594Z,30.20
2022-12-31T12:29:51.972Z,28.03
2022-12-31T12:32:22.437Z,29.07
2022-12-31T12:34:53.077Z,28.40
2022-12-31T12:37:33.197Z,29.70
2022-12-31T12:40:05.516Z,28.20
2022-12-31T12:42:34.150Z,26.60
2022-12-31T12:45:05.429Z,28.50
2022-12-31T12:47:35.139Z,29.33
2022-12-31T12:50:05.603Z,28.93
2022-12-31T12:52:55.071Z,29.57
2022-12-31T12:55:36.069Z,29.73
2022-12-31T12:58:17.107Z,29.47
2022-12-31T13:00:58.189Z,29.30
2022-12-31T13:04:07.240Z,34.93
2022-12-31T13:06:45.080Z,31.30
2022-12-31T13:09:26.725Z,31.20
2022-12-31T13:12:07.794Z,32.57
2022-12-31T13:14:48.331Z,34.33
2022-12-31T13:17:51.471Z,40.93
2022-12-31T13:20:29.847Z,35.80
2022-12-31T13:23:04.939Z,33.80
2022-12-31T13:25:46.747Z,42.17
2022-12-31T13:28:17.667Z,40.13
2022-12-31T13:30:49.648Z,38.97
2022-12-31T13:33:20.664Z,36.63
2022-12-31T13:35:53.128Z,41.80
2022-12-31T13:38:26.801Z,37.10
2022-12-31T13:41:02.078Z,39.43
2022-12-31T13:43:39.395Z,37.93
2022-12-31T13:46:17.899Z,41.07
2022-12-31T13:48:51.648Z,42.10
2022-12-31T13:51:27.490Z,36.73
2022-12-31T13:54:03.888Z,35.63
2022-12-31T13:56:37.987Z,34.70
2022-12-31T13:59:11.787Z,35.13
2022-12-31T14:01:46.661Z,39.27
2022-12-31T14:04:19.198Z,37.43
2022-12-31T14:06:53.019Z,41.27
2022-12-31T14:09:25.427Z,43.03
2022-12-31T14:12:14.456Z,36.37
2022-12-31T14:14:51.424Z,36.33
2022-12-31T14:17:29.714Z,34.50
2022-12-31T14:20:08.328Z,36.83
2022-12-31T14:22:44.912Z,31.60
2022-12-31T14:25:21.864Z,34.13
2022-12-31T14:27:53.288Z,35.17
2022-12-31T14:30:23.498Z,30.50
2022-12-31T14:33:10.771Z,31.20
2022-12-31T14:35:51.634Z,28.17
2022-12-31T14:38:28.878Z,32.40
2022-12-31T14:41:11.051Z,30.80
2022-12-31T14:43:51.607Z,34.87
2022-12-31T14:46:31.310Z,32.50
2022-12-31T14:49:15.564Z,34.60
2022-12-31T14:51:43.997Z,34.67
2022-12-31T14:54:29.083Z,32.60
2022-12-31T14:56:58.935Z,38.33
2022-12-31T14:59:32.234Z,35.77
2022-12-31T15:02:02.867Z,39.03
2022-12-31T15:04:33.774Z,41.47
2022-12-31T15:07:12.280Z,33.80
2022-12-31T15:09:59.857Z,33.83
2022-12-31T15:12:48.179Z,35.00
2022-12-31T15:15:33.569Z,37.90
2022-12-31T15:18:23.227Z,40.37
2022-12-31T15:21:11.517Z,35.10
2022-12-31T15:23:44.129Z,36.20
2022-12-31T15:26:23.784Z,35.43
2022-12-31T15:29:02.802Z,37.27
2022-12-31T15:31:33.346Z,41.50
2022-12-31T15:34:05.388Z,35.63
2022-12-31T15:36:36.410Z,38.73
2022-12-31T15:39:26.901Z,40.90
2022-12-31T15:44:52.026Z,37.93
2022-12-31T15:47:29.971Z,43.70
2022-12-31T15:50:03.015Z,41.27
2022-12-31T15:52:41.019Z,38.60
2022-12-31T15:55:14.825Z,41.33
2022-12-31T15:57:44.492Z,40.23
2022-12-31T16:00:20.026Z,38.40
2022-12-31T16:02:49.618Z,41.80
2022-12-31T16:05:23.394Z,42.17
2022-12-31T16:07:55.163Z,40.63
2022-12-31T16:10:26.611Z,39.80
2022-12-31T16:12:56.686Z,41.27
2022-12-31T16:15:30.499Z,40.80
2022-12-31T16:18:01.635Z,40.67
2022-12-31T16:20:32.761Z,38.77
2022-12-31T16:23:03.584Z,38.90
2022-12-31T16:25:33.991Z,37.27
2022-12-31T16:28:04.751Z,40.27
2022-12-31T16:30:36.935Z,40.83
2022-12-31T16:33:07.262Z,40.30
2022-12-31T16:35:37.879Z,37.17
2022-12-31T16:38:15.255Z,38.57
2022-12-31T16:40:50.855Z,39.73
2022-12-31T16:43:30.790Z,40.30
2022-12-31T16:46:10.228Z,31.23
2022-12-31T16:48:39.247Z,33.60
2022-12-31T16:51:08.111Z,44.60
2022-12-31T16:53:39.121Z,42.30
2022-12-31T16:56:10.017Z,41.40
2022-12-31T16:58:42.339Z,41.77
2022-12-31T17:01:15.893Z,34.70
2022-12-31T17:03:46.876Z,36.70
2022-12-31T17:06:18.913Z,34.93
2022-12-31T17:08:51.211Z,35.97
2022-12-31T17:11:28.754Z,32.70
2022-12-31T17:13:59.718Z,33.50
2022-12-31T17:16:29.664Z,33.73
2022-12-31T17:18:58.231Z,36.50
2022-12-31T17:21:29.489Z,34.20
2022-12-31T17:24:02.259Z,35.37
2022-12-31T17:26:33.864Z,34.30
2022-12-31T17:29:05.250Z,37.63
2022-12-31T17:31:37.002Z,34.00
2022-12-31T17:34:24.246Z,36.10
2022-12-31T17:37:17.916Z,34.47
2022-12-31T17:39:49.419Z,30.20
2022-12-31T17:42:29.488Z,33.23
2022-12-31T17:45:01.290Z,41.00
2022-12-31T17:47:37.512Z,34.23
2022-12-31T17:50:20.717Z,33.73
2022-12-31T17:52:49.233Z,30.37
2022-12-31T17:55:17.998Z,36.60
2022-12-31T17:57:52.037Z,33.67
2022-12-31T18:00:22.387Z,34.57
2022-12-31T18:02:52.114Z,37.07
2022-12-31T18:05:22.413Z,36.90
2022-12-31T18:07:50.920Z,38.20
2022-12-31T18:10:21.448Z,37.50
2022-12-31T18:12:50.531Z,39.37
2022-12-31T18:15:21.625Z,35.30
2022-12-31T18:17:52.097Z,35.80
2022-12-31T18:20:20.547Z,39.77
2022-12-31T18:22:49.429Z,44.47
2022-12-31T18:25:20.570Z,45.17
2022-12-31T18:27:49.596Z,46.20
2022-12-31T18:30:18.622Z,41.37
2022-12-31T18:32:47.814Z,42.80
2022-12-31T18:36:06.670Z,42.07
2022-12-31T18:38:12.235Z,47.57
2022-12-31T18:40:44.233Z,63.17
2022-12-31T18:43:17.447Z,50.77
2022-12-31T18:45:46.092Z,50.23
2022-12-31T18:48:14.852Z,50.50
2022-12-31T18:50:44.762Z,47.80
2022-12-31T18:53:17.545Z,47.70
2022-12-31T18:55:48.948Z,49.80
2022-12-31T18:58:17.537Z,44.13
2022-12-31T19:00:46.587Z,43.43
2022-12-31T19:03:17.304Z,41.17
2022-12-31T19:05:49.790Z,46.67
2022-12-31T19:08:18.577Z,50.30
2022-12-31T19:10:47.724Z,47.27
2022-12-31T19:13:18.071Z,53.90
2022-12-31T19:15:48.417Z,49.00
2022-12-31T19:18:17.281Z,54.23
2022-12-31T19:20:47.622Z,50.93
2022-12-31T19:23:18.225Z,47.20
2022-12-31T19:25:48.187Z,49.90
2022-12-31T19:28:18.570Z,49.70
2022-12-31T19:30:47.393Z,44.83
2022-12-31T19:33:16.142Z,41.90
2022-12-31T19:35:44.801Z,40.20
2022-12-31T19:38:19.792Z,41.97
2022-12-31T19:40:49.059Z,45.10
2022-12-31T19:43:20.133Z,46.90
2022-12-31T19:45:48.951Z,59.03
2022-12-31T19:48:20.978Z,45.67
2022-12-31T19:50:51.658Z,53.60
2022-12-31T19:53:23.576Z,59.03
2022-12-31T19:55:52.849Z,46.90
2022-12-31T19:58:22.877Z,43.20
2022-12-31T20:00:55.873Z,49.30
2022-12-31T20:03:27.244Z,45.43
2022-12-31T20:06:04.056Z,43.93
2022-12-31T20:08:34.255Z,55.37
2022-12-31T20:11:09.368Z,50.13
2022-12-31T20:13:38.391Z,51.53
2022-12-31T20:16:08.555Z,46.37
2022-12-31T20:18:38.401Z,46.80
2022-12-31T20:21:10.975Z,41.57
2022-12-31T20:23:40.851Z,44.00
2022-12-31T20:26:09.206Z,42.37
2022-12-31T20:28:38.283Z,43.27
2022-12-31T20:31:07.951Z,44.07
2022-12-31T20:33:36.905Z,45.20
2022-12-31T20:36:06.746Z,40.77
2022-12-31T20:38:35.382Z,40.00
2022-12-31T20:41:06.073Z,48.17
2022-12-31T20:43:34.991Z,42.80
2022-12-31T20:46:14.489Z,45.37
2022-12-31T20:48:44.649Z,51.67
2022-12-31T20:51:13.677Z,44.33
2022-12-31T20:53:46.155Z,46.57
2022-12-31T20:56:16.267Z,43.03
2022-12-31T20:58:44.944Z,42.73
2022-12-31T21:01:14.132Z,44.03
2022-12-31T21:06:35.184Z,43.77
2022-12-31T21:09:05.066Z,51.87
2022-12-31T21:11:52.503Z,42.13
2022-12-31T21:14:21.037Z,46.77
2022-12-31T21:16:49.359Z,38.23
2022-12-31T21:19:17.805Z,45.27
2022-12-31T21:21:48.094Z,45.17
2022-12-31T21:24:23.298Z,40.60
2022-12-31T21:26:56.589Z,40.50
2022-12-31T21:29:25.738Z,43.90
2022-12-31T21:31:56.187Z,43.33
2022-12-31T21:34:24.609Z,39.43
2022-12-31T21:36:52.982Z,43.67
2022-12-31T21:39:21.321Z,44.40
2022-12-31T21:41:52.571Z,43.87
2022-12-31T21:44:23.914Z,41.83
2022-12-31T21:47:33.325Z,40.53
2022-12-31T21:49:44.916Z,52.40
2022-12-31T21:52:30.458Z,44.60
2022-12-31T21:55:17.368Z,43.57
2022-12-31T21:58:24.323Z,44.73
2022-12-31T22:00:54.063Z,42.50
2022-12-31T22:03:27.654Z,40.07
2022-12-31T22:05:59.165Z,38.93
2022-12-31T22:08:29.251Z,42.10
2022-12-31T22:10:57.610Z,47.53
2022-12-31T22:13:26.303Z,56.00
2022-12-31T22:16:03.854Z,51.47
2022-12-31T22:18:35.838Z,49.07
2022-12-31T22:21:05.988Z,46.10
2022-12-31T22:23:35.701Z,41.93
2022-12-31T22:26:06.686Z,55.53
2022-12-31T22:28:38.708Z,53.07
2022-12-31T22:31:13.673Z,48.17
2022-12-31T22:33:42.141Z,47.77
2022-12-31T22:36:13.680Z,55.73
2022-12-31T22:38:42.221Z,46.17
2022-12-31T22:41:13.073Z,55.63
2022-12-31T22:43:43.805Z,58.97
2022-12-31T22:46:15.297Z,55.80
2022-12-31T22:48:44.046Z,53.93
2022-12-31T22:51:13.852Z,46.70
2022-12-31T22:53:43.614Z,53.17
2022-12-31T22:56:14.685Z,58.37
2022-12-31T22:58:43.177Z,48.80
2022-12-31T23:01:19.414Z,47.77
2022-12-31T23:03:47.957Z,44.53
2022-12-31T23:06:17.180Z,40.37
2022-12-31T23:09:05.921Z,49.87
2022-12-31T23:11:35.317Z,50.67
2022-12-31T23:14:22.145Z,177.40
2022-12-31T23:17:31.041Z,80.53
2022-12-31T23:20:15.678Z,101.93
2022-12-31T23:23:01.246Z,98.13
2022-12-31T23:25:32.004Z,72.50
2022-12-31T23:28:00.612Z,59.07
2022-12-31T23:30:29.326Z,66.67
2022-12-31T23:32:59.031Z,60.77
2022-12-31T23:35:27.557Z,57.47
2022-12-31T23:37:55.966Z,53.30
2022-12-31T23:40:34.380Z,53.83
2022-12-31T23:43:04.285Z,62.10
2022-12-31T23:45:33.650Z,54.97
2022-12-31T23:48:03.991Z,66.33
2022-12-31T23:50:32.484Z,61.43
2022-12-31T23:53:00.829Z,68.20
2022-12-31T23:55:29.265Z,64.27
2022-12-31T23:57:57.647Z,75.37
